sensor_id;sensor_type;location;lat;lon;timestamp;temperature;humidity
28969;DHT22;16076;51.194;6.642;2022-07-23T00:02:25;19.00;99.90
28969;DHT22;16076;51.194;6.642;2022-07-23T00:04:51;19.00;99.90
28969;DHT22;16076;51.194;6.642;2022-07-23T00:07:17;19.00;99.90
28969;DHT22;16076;51.194;6.642;2022-07-23T00:09:42;18.90;99.90
28969;DHT22;16076;51.194;6.642;2022-07-23T00:12:11;18.90;99.90
28969;DHT22;16076;51.194;6.642;2022-07-23T00:14:36;18.90;99.90
28969;DHT22;16076;51.194;6.642;2022-07-23T00:17:02;19.00;99.90
28969;DHT22;16076;51.194;6.642;2022-07-23T00:19:28;19.00;99.90
28969;DHT22;16076;51.194;6.642;2022-07-23T00:21:54;19.10;99.90
28969;DHT22;16076;51.194;6.642;2022-07-23T00:24:20;19.10;99.90
28969;DHT22;16076;51.194;6.642;2022-07-23T00:26:46;19.20;99.90
28969;DHT22;16076;51.194;6.642;2022-07-23T00:29:12;19.20;99.90
28969;DHT22;16076;51.194;6.642;2022-07-23T00:31:38;19.30;99.90
28969;DHT22;16076;51.194;6.642;2022-07-23T00:34:03;19.30;99.90
28969;DHT22;16076;51.194;6.642;2022-07-23T00:36:29;19.30;99.90
28969;DHT22;16076;51.194;6.642;2022-07-23T00:38:58;19.30;99.90
28969;DHT22;16076;51.194;6.642;2022-07-23T00:41:23;19.40;99.90
28969;DHT22;16076;51.194;6.642;2022-07-23T00:43:50;19.40;99.90
28969;DHT22;16076;51.194;6.642;2022-07-23T00:46:20;19.40;99.90
28969;DHT22;16076;51.194;6.642;2022-07-23T00:48:45;19.40;99.90
28969;DHT22;16076;51.194;6.642;2022-07-23T00:51:15;19.30;99.90
28969;DHT22;16076;51.194;6.642;2022-07-23T00:53:42;19.30;99.90
28969;DHT22;16076;51.194;6.642;2022-07-23T00:56:08;19.20;99.90
28969;DHT22;16076;51.194;6.642;2022-07-23T00:58:35;19.20;99.90
28969;DHT22;16076;51.194;6.642;2022-07-23T01:01:01;19.20;99.90
28969;DHT22;16076;51.194;6.642;2022-07-23T01:03:27;19.20;99.90
28969;DHT22;16076;51.194;6.642;2022-07-23T01:05:53;19.20;99.90
28969;DHT22;16076;51.194;6.642;2022-07-23T01:08:19;19.10;99.90
28969;DHT22;16076;51.194;6.642;2022-07-23T01:10:47;19.10;99.90
28969;DHT22;16076;51.194;6.642;2022-07-23T01:13:13;19.10;99.90
28969;DHT22;16076;51.194;6.642;2022-07-23T01:15:39;19.10;99.90
28969;DHT22;16076;51.194;6.642;2022-07-23T01:18:06;19.00;99.90
28969;DHT22;16076;51.194;6.642;2022-07-23T01:20:33;19.00;99.90
28969;DHT22;16076;51.194;6.642;2022-07-23T01:22:58;19.00;99.90
28969;DHT22;16076;51.194;6.642;2022-07-23T01:25:27;19.00;99.90
28969;DHT22;16076;51.194;6.642;2022-07-23T01:27:53;19.00;99.90
28969;DHT22;16076;51.194;6.642;2022-07-23T01:30:20;18.90;99.90
28969;DHT22;16076;51.194;6.642;2022-07-23T01:32:46;18.90;99.90
28969;DHT22;16076;51.194;6.642;2022-07-23T01:35:12;18.90;99.90
28969;DHT22;16076;51.194;6.642;2022-07-23T01:37:37;18.90;99.90
28969;DHT22;16076;51.194;6.642;2022-07-23T01:40:04;18.80;99.90
28969;DHT22;16076;51.194;6.642;2022-07-23T01:42:31;18.80;99.90
28969;DHT22;16076;51.194;6.642;2022-07-23T01:44:57;18.70;99.90
28969;DHT22;16076;51.194;6.642;2022-07-23T01:47:22;18.60;99.90
28969;DHT22;16076;51.194;6.642;2022-07-23T01:49:48;18.50;99.90
28969;DHT22;16076;51.194;6.642;2022-07-23T01:52:14;18.40;99.90
28969;DHT22;16076;51.194;6.642;2022-07-23T01:54:40;18.30;99.90
28969;DHT22;16076;51.194;6.642;2022-07-23T01:57:06;18.20;99.90
28969;DHT22;16076;51.194;6.642;2022-07-23T01:59:32;18.20;99.90
28969;DHT22;16076;51.194;6.642;2022-07-23T02:01:58;18.10;99.90
28969;DHT22;16076;51.194;6.642;2022-07-23T02:04:25;18.10;99.90
28969;DHT22;16076;51.194;6.642;2022-07-23T02:06:52;18.00;99.90
28969;DHT22;16076;51.194;6.642;2022-07-23T02:09:18;18.00;99.90
28969;DHT22;16076;51.194;6.642;2022-07-23T02:11:44;18.00;99.90
28969;DHT22;16076;51.194;6.642;2022-07-23T02:14:10;17.90;99.90
28969;DHT22;16076;51.194;6.642;2022-07-23T02:16:36;17.90;99.90
28969;DHT22;16076;51.194;6.642;2022-07-23T02:19:03;17.90;99.90
28969;DHT22;16076;51.194;6.642;2022-07-23T02:21:29;17.80;99.90
28969;DHT22;16076;51.194;6.642;2022-07-23T02:23:55;17.70;99.90
28969;DHT22;16076;51.194;6.642;2022-07-23T02:26:20;17.60;99.90
28969;DHT22;16076;51.194;6.642;2022-07-23T02:28:46;17.60;99.90
28969;DHT22;16076;51.194;6.642;2022-07-23T02:31:12;17.60;99.90
28969;DHT22;16076;51.194;6.642;2022-07-23T02:33:38;17.60;99.90
28969;DHT22;16076;51.194;6.642;2022-07-23T02:36:04;17.60;99.90
28969;DHT22;16076;51.194;6.642;2022-07-23T02:38:32;17.60;99.90
28969;DHT22;16076;51.194;6.642;2022-07-23T02:40:58;17.60;99.90
28969;DHT22;16076;51.194;6.642;2022-07-23T02:43:24;17.60;99.90
28969;DHT22;16076;51.194;6.642;2022-07-23T02:45:49;17.60;99.90
28969;DHT22;16076;51.194;6.642;2022-07-23T02:48:15;17.50;99.90
28969;DHT22;16076;51.194;6.642;2022-07-23T02:50:43;17.50;99.90
28969;DHT22;16076;51.194;6.642;2022-07-23T02:53:09;17.40;99.90
28969;DHT22;16076;51.194;6.642;2022-07-23T02:55:35;17.40;99.90
28969;DHT22;16076;51.194;6.642;2022-07-23T02:58:00;17.30;99.90
28969;DHT22;16076;51.194;6.642;2022-07-23T03:00:26;17.20;99.90
28969;DHT22;16076;51.194;6.642;2022-07-23T03:02:52;17.20;99.90
28969;DHT22;16076;51.194;6.642;2022-07-23T03:05:18;17.20;99.90
28969;DHT22;16076;51.194;6.642;2022-07-23T03:07:43;17.20;99.90
28969;DHT22;16076;51.194;6.642;2022-07-23T03:10:11;17.20;99.90
28969;DHT22;16076;51.194;6.642;2022-07-23T03:12:37;17.20;99.90
28969;DHT22;16076;51.194;6.642;2022-07-23T03:15:03;17.10;99.90
28969;DHT22;16076;51.194;6.642;2022-07-23T03:17:29;17.10;99.90
28969;DHT22;16076;51.194;6.642;2022-07-23T03:19:55;17.10;99.90
28969;DHT22;16076;51.194;6.642;2022-07-23T03:22:20;17.00;99.90
28969;DHT22;16076;51.194;6.642;2022-07-23T03:24:46;16.90;99.90
28969;DHT22;16076;51.194;6.642;2022-07-23T03:27:22;16.90;99.90
28969;DHT22;16076;51.194;6.642;2022-07-23T03:29:55;16.80;99.90
28969;DHT22;16076;51.194;6.642;2022-07-23T03:32:22;16.70;99.90
28969;DHT22;16076;51.194;6.642;2022-07-23T03:34:48;16.60;99.90
28969;DHT22;16076;51.194;6.642;2022-07-23T03:37:15;16.50;99.90
28969;DHT22;16076;51.194;6.642;2022-07-23T03:39:41;16.50;99.90
28969;DHT22;16076;51.194;6.642;2022-07-23T03:42:07;16.50;99.90
28969;DHT22;16076;51.194;6.642;2022-07-23T03:44:33;16.50;99.90
28969;DHT22;16076;51.194;6.642;2022-07-23T03:46:59;16.50;99.90
28969;DHT22;16076;51.194;6.642;2022-07-23T03:49:25;16.50;99.90
28969;DHT22;16076;51.194;6.642;2022-07-23T03:51:53;16.50;99.90
28969;DHT22;16076;51.194;6.642;2022-07-23T03:54:19;16.50;99.90
28969;DHT22;16076;51.194;6.642;2022-07-23T03:56:44;16.50;99.90
28969;DHT22;16076;51.194;6.642;2022-07-23T03:59:10;16.50;99.90
28969;DHT22;16076;51.194;6.642;2022-07-23T04:01:38;16.50;99.90
28969;DHT22;16076;51.194;6.642;2022-07-23T04:04:04;16.40;99.90
28969;DHT22;16076;51.194;6.642;2022-07-23T04:06:30;16.50;99.90
28969;DHT22;16076;51.194;6.642;2022-07-23T04:08:56;16.50;99.90
28969;DHT22;16076;51.194;6.642;2022-07-23T04:11:22;16.50;99.90
28969;DHT22;16076;51.194;6.642;2022-07-23T04:13:47;16.50;99.90
28969;DHT22;16076;51.194;6.642;2022-07-23T04:16:13;16.50;99.90
28969;DHT22;16076;51.194;6.642;2022-07-23T04:18:39;16.40;99.90
28969;DHT22;16076;51.194;6.642;2022-07-23T04:21:05;16.40;99.90
28969;DHT22;16076;51.194;6.642;2022-07-23T04:23:31;16.40;99.90
28969;DHT22;16076;51.194;6.642;2022-07-23T04:25:57;16.40;99.90
28969;DHT22;16076;51.194;6.642;2022-07-23T04:28:22;16.30;99.90
28969;DHT22;16076;51.194;6.642;2022-07-23T04:30:48;16.30;99.90
28969;DHT22;16076;51.194;6.642;2022-07-23T04:33:14;16.30;99.90
28969;DHT22;16076;51.194;6.642;2022-07-23T04:35:39;16.40;99.90
28969;DHT22;16076;51.194;6.642;2022-07-23T04:38:05;16.50;99.90
28969;DHT22;16076;51.194;6.642;2022-07-23T04:40:31;16.50;99.90
28969;DHT22;16076;51.194;6.642;2022-07-23T04:42:57;16.60;99.90
28969;DHT22;16076;51.194;6.642;2022-07-23T04:45:23;16.70;99.90
28969;DHT22;16076;51.194;6.642;2022-07-23T04:47:50;16.70;99.90
28969;DHT22;16076;51.194;6.642;2022-07-23T04:50:16;16.80;99.90
28969;DHT22;16076;51.194;6.642;2022-07-23T04:52:47;16.80;99.90
28969;DHT22;16076;51.194;6.642;2022-07-23T04:55:13;16.90;99.90
28969;DHT22;16076;51.194;6.642;2022-07-23T04:57:39;17.00;99.90
28969;DHT22;16076;51.194;6.642;2022-07-23T05:00:06;17.00;99.90
28969;DHT22;16076;51.194;6.642;2022-07-23T05:02:32;17.10;99.90
28969;DHT22;16076;51.194;6.642;2022-07-23T05:04:57;17.10;99.90
28969;DHT22;16076;51.194;6.642;2022-07-23T05:07:23;17.20;99.90
28969;DHT22;16076;51.194;6.642;2022-07-23T05:09:49;17.20;99.90
28969;DHT22;16076;51.194;6.642;2022-07-23T05:12:15;17.30;99.90
28969;DHT22;16076;51.194;6.642;2022-07-23T05:14:41;17.40;99.90
28969;DHT22;16076;51.194;6.642;2022-07-23T05:17:07;17.50;99.90
28969;DHT22;16076;51.194;6.642;2022-07-23T05:19:34;17.50;99.90
28969;DHT22;16076;51.194;6.642;2022-07-23T05:22:00;17.60;99.90
28969;DHT22;16076;51.194;6.642;2022-07-23T05:24:25;17.60;99.90
28969;DHT22;16076;51.194;6.642;2022-07-23T05:26:51;17.70;99.90
28969;DHT22;16076;51.194;6.642;2022-07-23T05:29:17;17.80;99.90
28969;DHT22;16076;51.194;6.642;2022-07-23T05:31:43;17.80;99.90
28969;DHT22;16076;51.194;6.642;2022-07-23T05:34:09;17.90;99.90
28969;DHT22;16076;51.194;6.642;2022-07-23T05:36:37;17.90;99.90
28969;DHT22;16076;51.194;6.642;2022-07-23T05:39:04;18.10;99.90
28969;DHT22;16076;51.194;6.642;2022-07-23T05:41:30;18.20;99.90
28969;DHT22;16076;51.194;6.642;2022-07-23T05:43:55;18.20;99.90
28969;DHT22;16076;51.194;6.642;2022-07-23T05:46:21;18.20;99.90
28969;DHT22;16076;51.194;6.642;2022-07-23T05:48:47;18.30;99.90
28969;DHT22;16076;51.194;6.642;2022-07-23T05:51:24;18.30;99.90
28969;DHT22;16076;51.194;6.642;2022-07-23T05:53:51;18.10;99.90
28969;DHT22;16076;51.194;6.642;2022-07-23T05:56:17;18.10;99.90
28969;DHT22;16076;51.194;6.642;2022-07-23T05:58:43;18.10;99.90
28969;DHT22;16076;51.194;6.642;2022-07-23T06:01:12;18.30;99.90
28969;DHT22;16076;51.194;6.642;2022-07-23T06:03:38;18.30;99.90
28969;DHT22;16076;51.194;6.642;2022-07-23T06:06:05;18.50;99.90
28969;DHT22;16076;51.194;6.642;2022-07-23T06:08:31;18.60;99.90
28969;DHT22;16076;51.194;6.642;2022-07-23T06:10:57;18.70;99.90
28969;DHT22;16076;51.194;6.642;2022-07-23T06:13:23;18.80;99.90
28969;DHT22;16076;51.194;6.642;2022-07-23T06:15:49;18.90;99.90
28969;DHT22;16076;51.194;6.642;2022-07-23T06:18:17;19.00;99.90
28969;DHT22;16076;51.194;6.642;2022-07-23T06:20:43;19.10;99.90
28969;DHT22;16076;51.194;6.642;2022-07-23T06:23:09;19.20;99.90
28969;DHT22;16076;51.194;6.642;2022-07-23T06:25:34;19.20;99.90
28969;DHT22;16076;51.194;6.642;2022-07-23T06:28:02;19.30;99.90
28969;DHT22;16076;51.194;6.642;2022-07-23T06:30:28;19.30;99.90
28969;DHT22;16076;51.194;6.642;2022-07-23T06:32:54;19.30;99.90
28969;DHT22;16076;51.194;6.642;2022-07-23T06:35:20;19.30;99.90
28969;DHT22;16076;51.194;6.642;2022-07-23T06:37:45;19.20;99.90
28969;DHT22;16076;51.194;6.642;2022-07-23T06:40:11;19.30;99.90
28969;DHT22;16076;51.194;6.642;2022-07-23T06:42:38;19.20;99.90
28969;DHT22;16076;51.194;6.642;2022-07-23T06:45:06;19.40;99.90
28969;DHT22;16076;51.194;6.642;2022-07-23T06:47:32;19.40;99.90
28969;DHT22;16076;51.194;6.642;2022-07-23T06:49:58;19.60;99.90
28969;DHT22;16076;51.194;6.642;2022-07-23T06:52:24;19.60;99.90
28969;DHT22;16076;51.194;6.642;2022-07-23T06:54:49;19.70;99.90
28969;DHT22;16076;51.194;6.642;2022-07-23T06:57:15;19.70;99.90
28969;DHT22;16076;51.194;6.642;2022-07-23T06:59:41;19.80;99.90
28969;DHT22;16076;51.194;6.642;2022-07-23T07:02:08;19.60;99.90
28969;DHT22;16076;51.194;6.642;2022-07-23T07:04:34;19.60;99.90
28969;DHT22;16076;51.194;6.642;2022-07-23T07:06:59;19.60;99.90
28969;DHT22;16076;51.194;6.642;2022-07-23T07:09:25;19.60;99.90
28969;DHT22;16076;51.194;6.642;2022-07-23T07:11:51;19.70;99.90
28969;DHT22;16076;51.194;6.642;2022-07-23T07:14:17;19.70;99.90
28969;DHT22;16076;51.194;6.642;2022-07-23T07:16:42;19.80;99.90
28969;DHT22;16076;51.194;6.642;2022-07-23T07:19:08;19.90;99.90
28969;DHT22;16076;51.194;6.642;2022-07-23T07:21:34;20.10;99.90
28969;DHT22;16076;51.194;6.642;2022-07-23T07:24:03;20.20;99.90
28969;DHT22;16076;51.194;6.642;2022-07-23T07:26:29;20.30;99.90
28969;DHT22;16076;51.194;6.642;2022-07-23T07:28:58;20.40;99.90
28969;DHT22;16076;51.194;6.642;2022-07-23T07:31:24;20.50;99.90
28969;DHT22;16076;51.194;6.642;2022-07-23T07:33:50;20.80;99.90
28969;DHT22;16076;51.194;6.642;2022-07-23T07:36:16;20.80;99.90
28969;DHT22;16076;51.194;6.642;2022-07-23T07:38:44;20.80;99.90
28969;DHT22;16076;51.194;6.642;2022-07-23T07:41:11;21.00;99.90
28969;DHT22;16076;51.194;6.642;2022-07-23T07:43:37;21.10;99.90
28969;DHT22;16076;51.194;6.642;2022-07-23T07:46:04;21.10;99.90
28969;DHT22;16076;51.194;6.642;2022-07-23T07:48:30;21.20;99.90
28969;DHT22;16076;51.194;6.642;2022-07-23T07:50:58;21.30;99.90
28969;DHT22;16076;51.194;6.642;2022-07-23T07:53:26;21.40;99.90
28969;DHT22;16076;51.194;6.642;2022-07-23T07:55:52;21.40;99.90
28969;DHT22;16076;51.194;6.642;2022-07-23T07:58:18;21.60;99.90
28969;DHT22;16076;51.194;6.642;2022-07-23T08:00:43;21.70;99.90
28969;DHT22;16076;51.194;6.642;2022-07-23T08:03:09;21.80;99.90
28969;DHT22;16076;51.194;6.642;2022-07-23T08:05:35;21.90;99.90
28969;DHT22;16076;51.194;6.642;2022-07-23T08:08:01;22.00;99.90
28969;DHT22;16076;51.194;6.642;2022-07-23T08:10:29;22.00;99.90
28969;DHT22;16076;51.194;6.642;2022-07-23T08:12:58;22.00;99.90
28969;DHT22;16076;51.194;6.642;2022-07-23T08:15:26;22.00;99.90
28969;DHT22;16076;51.194;6.642;2022-07-23T08:17:52;22.10;99.90
28969;DHT22;16076;51.194;6.642;2022-07-23T08:20:21;22.10;99.90
28969;DHT22;16076;51.194;6.642;2022-07-23T08:22:58;22.10;99.90
28969;DHT22;16076;51.194;6.642;2022-07-23T08:25:33;22.10;99.90
28969;DHT22;16076;51.194;6.642;2022-07-23T08:28:01;22.10;99.90
28969;DHT22;16076;51.194;6.642;2022-07-23T08:30:31;22.20;99.90
28969;DHT22;16076;51.194;6.642;2022-07-23T08:37:57;22.20;99.90
28969;DHT22;16076;51.194;6.642;2022-07-23T08:40:26;22.20;99.90
28969;DHT22;16076;51.194;6.642;2022-07-23T08:42:54;22.20;99.90
28969;DHT22;16076;51.194;6.642;2022-07-23T08:45:22;22.20;99.90
28969;DHT22;16076;51.194;6.642;2022-07-23T08:47:55;22.10;99.90
28969;DHT22;16076;51.194;6.642;2022-07-23T08:50:23;22.10;99.90
28969;DHT22;16076;51.194;6.642;2022-07-23T08:52:50;22.20;99.90
28969;DHT22;16076;51.194;6.642;2022-07-23T08:55:21;22.20;99.90
28969;DHT22;16076;51.194;6.642;2022-07-23T08:57:49;22.30;99.90
28969;DHT22;16076;51.194;6.642;2022-07-23T09:00:16;22.40;99.90
28969;DHT22;16076;51.194;6.642;2022-07-23T09:02:45;22.50;99.90
28969;DHT22;16076;51.194;6.642;2022-07-23T09:05:13;22.60;99.90
28969;DHT22;16076;51.194;6.642;2022-07-23T09:15:53;22.60;99.90
28969;DHT22;16076;51.194;6.642;2022-07-23T09:18:27;22.50;99.90
28969;DHT22;16076;51.194;6.642;2022-07-23T09:21:08;22.60;99.90
28969;DHT22;16076;51.194;6.642;2022-07-23T09:24:02;22.70;99.90
28969;DHT22;16076;51.194;6.642;2022-07-23T09:29:01;22.80;99.90
28969;DHT22;16076;51.194;6.642;2022-07-23T09:36:40;23.00;99.90
28969;DHT22;16076;51.194;6.642;2022-07-23T09:39:07;23.00;99.90
28969;DHT22;16076;51.194;6.642;2022-07-23T09:41:53;23.10;99.90
28969;DHT22;16076;51.194;6.642;2022-07-23T09:44:20;23.30;99.90
28969;DHT22;16076;51.194;6.642;2022-07-23T09:46:50;23.20;99.90
28969;DHT22;16076;51.194;6.642;2022-07-23T09:49:21;23.30;99.90
28969;DHT22;16076;51.194;6.642;2022-07-23T09:51:52;23.40;99.90
28969;DHT22;16076;51.194;6.642;2022-07-23T09:57:07;23.50;99.90
28969;DHT22;16076;51.194;6.642;2022-07-23T09:59:37;23.50;99.90
28969;DHT22;16076;51.194;6.642;2022-07-23T10:02:05;23.50;99.90
28969;DHT22;16076;51.194;6.642;2022-07-23T10:04:32;23.60;99.90
28969;DHT22;16076;51.194;6.642;2022-07-23T10:07:00;23.70;99.90
28969;DHT22;16076;51.194;6.642;2022-07-23T10:09:32;23.90;99.90
28969;DHT22;16076;51.194;6.642;2022-07-23T10:12:03;24.00;99.90
28969;DHT22;16076;51.194;6.642;2022-07-23T10:14:35;24.10;99.90
28969;DHT22;16076;51.194;6.642;2022-07-23T10:17:03;24.20;99.70
28969;DHT22;16076;51.194;6.642;2022-07-23T10:19:30;24.30;99.70
28969;DHT22;16076;51.194;6.642;2022-07-23T10:22:06;24.40;98.80
28969;DHT22;16076;51.194;6.642;2022-07-23T10:24:45;24.50;98.60
28969;DHT22;16076;51.194;6.642;2022-07-23T10:27:50;24.60;99.00
28969;DHT22;16076;51.194;6.642;2022-07-23T10:36:59;24.90;96.60
28969;DHT22;16076;51.194;6.642;2022-07-23T10:39:31;24.90;97.60
28969;DHT22;16076;51.194;6.642;2022-07-23T10:42:16;25.00;96.30
28969;DHT22;16076;51.194;6.642;2022-07-23T10:44:47;25.00;96.40
28969;DHT22;16076;51.194;6.642;2022-07-23T10:47:28;25.00;96.00
28969;DHT22;16076;51.194;6.642;2022-07-23T10:49:53;25.00;97.10
28969;DHT22;16076;51.194;6.642;2022-07-23T10:52:39;25.10;97.10
28969;DHT22;16076;51.194;6.642;2022-07-23T10:57:48;25.30;94.50
28969;DHT22;16076;51.194;6.642;2022-07-23T11:00:15;25.50;94.30
28969;DHT22;16076;51.194;6.642;2022-07-23T11:02:45;25.60;94.90
28969;DHT22;16076;51.194;6.642;2022-07-23T11:05:14;25.60;93.90
28969;DHT22;16076;51.194;6.642;2022-07-23T11:10:39;25.80;94.00
28969;DHT22;16076;51.194;6.642;2022-07-23T11:23:59;25.90;93.30
28969;DHT22;16076;51.194;6.642;2022-07-23T11:32:27;26.00;93.00
28969;DHT22;16076;51.194;6.642;2022-07-23T11:34:54;26.10;91.30
28969;DHT22;16076;51.194;6.642;2022-07-23T11:37:40;26.10;92.20
28969;DHT22;16076;51.194;6.642;2022-07-23T11:40:11;26.20;91.40
28969;DHT22;16076;51.194;6.642;2022-07-23T11:43:00;26.20;92.40
28969;DHT22;16076;51.194;6.642;2022-07-23T11:45:33;26.20;91.60
28969;DHT22;16076;51.194;6.642;2022-07-23T11:48:03;26.30;92.40
28969;DHT22;16076;51.194;6.642;2022-07-23T11:50:30;26.30;91.90
28969;DHT22;16076;51.194;6.642;2022-07-23T11:52:56;26.40;91.20
28969;DHT22;16076;51.194;6.642;2022-07-23T11:55:26;26.50;91.20
28969;DHT22;16076;51.194;6.642;2022-07-23T11:57:54;26.60;90.90
28969;DHT22;16076;51.194;6.642;2022-07-23T12:00:25;26.70;91.50
28969;DHT22;16076;51.194;6.642;2022-07-23T12:02:55;26.90;91.70
28969;DHT22;16076;51.194;6.642;2022-07-23T12:05:22;27.00;90.10
28969;DHT22;16076;51.194;6.642;2022-07-23T12:07:51;26.90;87.60
28969;DHT22;16076;51.194;6.642;2022-07-23T12:12:55;26.70;90.50
28969;DHT22;16076;51.194;6.642;2022-07-23T12:17:52;26.80;89.30
28969;DHT22;16076;51.194;6.642;2022-07-23T12:20:24;26.80;86.80
28969;DHT22;16076;51.194;6.642;2022-07-23T12:22:53;26.90;87.20
28969;DHT22;16076;51.194;6.642;2022-07-23T12:25:22;26.90;91.30
28969;DHT22;16076;51.194;6.642;2022-07-23T12:30:48;27.10;85.20
28969;DHT22;16076;51.194;6.642;2022-07-23T12:33:24;27.10;87.10
28969;DHT22;16076;51.194;6.642;2022-07-23T12:35:51;27.10;86.50
28969;DHT22;16076;51.194;6.642;2022-07-23T12:38:20;27.30;89.30
28969;DHT22;16076;51.194;6.642;2022-07-23T12:40:48;27.60;84.00
28969;DHT22;16076;51.194;6.642;2022-07-23T12:43:29;27.70;86.10
28969;DHT22;16076;51.194;6.642;2022-07-23T12:46:07;27.70;83.40
28969;DHT22;16076;51.194;6.642;2022-07-23T12:48:34;27.60;83.50
28969;DHT22;16076;51.194;6.642;2022-07-23T12:51:05;27.60;81.80
28969;DHT22;16076;51.194;6.642;2022-07-23T12:53:32;27.60;85.80
28969;DHT22;16076;51.194;6.642;2022-07-23T12:56:10;27.70;80.60
28969;DHT22;16076;51.194;6.642;2022-07-23T13:01:09;27.80;80.80
28969;DHT22;16076;51.194;6.642;2022-07-23T13:06:06;28.00;82.80
28969;DHT22;16076;51.194;6.642;2022-07-23T13:08:33;29.10;79.00
28969;DHT22;16076;51.194;6.642;2022-07-23T13:11:00;30.60;74.70
28969;DHT22;16076;51.194;6.642;2022-07-23T13:13:30;32.30;71.40
28969;DHT22;16076;51.194;6.642;2022-07-23T13:15:56;33.80;65.00
28969;DHT22;16076;51.194;6.642;2022-07-23T13:18:24;34.60;60.50
28969;DHT22;16076;51.194;6.642;2022-07-23T13:20:50;35.80;60.60
28969;DHT22;16076;51.194;6.642;2022-07-23T13:23:17;36.60;54.50
28969;DHT22;16076;51.194;6.642;2022-07-23T13:25:43;36.70;53.40
28969;DHT22;16076;51.194;6.642;2022-07-23T13:28:09;36.80;52.10
28969;DHT22;16076;51.194;6.642;2022-07-23T13:30:35;37.50;51.20
28969;DHT22;16076;51.194;6.642;2022-07-23T13:33:08;38.40;50.90
28969;DHT22;16076;51.194;6.642;2022-07-23T13:35:36;39.30;45.90
28969;DHT22;16076;51.194;6.642;2022-07-23T13:38:03;39.80;47.40
28969;DHT22;16076;51.194;6.642;2022-07-23T13:40:29;40.40;45.20
28969;DHT22;16076;51.194;6.642;2022-07-23T13:42:55;40.30;43.60
28969;DHT22;16076;51.194;6.642;2022-07-23T13:45:21;40.00;43.10
28969;DHT22;16076;51.194;6.642;2022-07-23T13:47:47;40.10;41.80
28969;DHT22;16076;51.194;6.642;2022-07-23T13:50:12;39.60;44.20
28969;DHT22;16076;51.194;6.642;2022-07-23T13:52:42;38.80;43.50
28969;DHT22;16076;51.194;6.642;2022-07-23T13:55:11;38.70;43.10
28969;DHT22;16076;51.194;6.642;2022-07-23T13:57:37;38.50;44.10
28969;DHT22;16076;51.194;6.642;2022-07-23T14:00:05;38.20;43.70
28969;DHT22;16076;51.194;6.642;2022-07-23T14:02:33;38.20;44.10
28969;DHT22;16076;51.194;6.642;2022-07-23T14:04:58;38.00;43.90
28969;DHT22;16076;51.194;6.642;2022-07-23T14:07:24;38.10;43.50
28969;DHT22;16076;51.194;6.642;2022-07-23T14:09:52;38.80;46.20
28969;DHT22;16076;51.194;6.642;2022-07-23T14:12:18;39.60;42.60
28969;DHT22;16076;51.194;6.642;2022-07-23T14:14:47;40.00;42.30
28969;DHT22;16076;51.194;6.642;2022-07-23T14:17:13;39.80;40.60
28969;DHT22;16076;51.194;6.642;2022-07-23T14:19:39;39.80;41.70
28969;DHT22;16076;51.194;6.642;2022-07-23T14:22:05;40.10;41.00
28969;DHT22;16076;51.194;6.642;2022-07-23T14:24:35;40.50;40.90
28969;DHT22;16076;51.194;6.642;2022-07-23T14:27:03;40.40;40.00
28969;DHT22;16076;51.194;6.642;2022-07-23T14:29:29;40.60;41.00
28969;DHT22;16076;51.194;6.642;2022-07-23T14:31:58;40.30;40.50
28969;DHT22;16076;51.194;6.642;2022-07-23T14:34:25;40.10;40.20
28969;DHT22;16076;51.194;6.642;2022-07-23T14:36:53;40.00;39.90
28969;DHT22;16076;51.194;6.642;2022-07-23T14:39:19;39.90;41.40
28969;DHT22;16076;51.194;6.642;2022-07-23T14:41:47;40.30;41.80
28969;DHT22;16076;51.194;6.642;2022-07-23T14:44:16;40.50;40.30
28969;DHT22;16076;51.194;6.642;2022-07-23T14:46:44;40.50;40.10
28969;DHT22;16076;51.194;6.642;2022-07-23T14:49:11;40.20;41.10
28969;DHT22;16076;51.194;6.642;2022-07-23T14:51:39;40.40;40.50
28969;DHT22;16076;51.194;6.642;2022-07-23T14:54:06;40.80;39.60
28969;DHT22;16076;51.194;6.642;2022-07-23T14:56:32;41.40;38.80
28969;DHT22;16076;51.194;6.642;2022-07-23T14:58:59;42.00;37.40
28969;DHT22;16076;51.194;6.642;2022-07-23T15:01:25;42.40;37.20
28969;DHT22;16076;51.194;6.642;2022-07-23T15:03:52;43.10;37.00
28969;DHT22;16076;51.194;6.642;2022-07-23T15:06:18;43.20;36.10
28969;DHT22;16076;51.194;6.642;2022-07-23T15:08:44;43.10;37.20
28969;DHT22;16076;51.194;6.642;2022-07-23T15:11:12;43.40;36.20
28969;DHT22;16076;51.194;6.642;2022-07-23T15:13:38;43.60;36.60
28969;DHT22;16076;51.194;6.642;2022-07-23T15:16:05;43.30;36.70
28969;DHT22;16076;51.194;6.642;2022-07-23T15:18:31;43.30;35.50
28969;DHT22;16076;51.194;6.642;2022-07-23T15:20:59;43.10;34.50
28969;DHT22;16076;51.194;6.642;2022-07-23T15:23:27;42.80;35.20
28969;DHT22;16076;51.194;6.642;2022-07-23T15:25:54;42.80;34.70
28969;DHT22;16076;51.194;6.642;2022-07-23T15:28:21;42.80;35.60
28969;DHT22;16076;51.194;6.642;2022-07-23T15:30:47;42.80;35.50
28969;DHT22;16076;51.194;6.642;2022-07-23T15:33:15;42.60;35.10
28969;DHT22;16076;51.194;6.642;2022-07-23T15:35:40;41.80;35.90
28969;DHT22;16076;51.194;6.642;2022-07-23T15:38:06;41.40;37.60
28969;DHT22;16076;51.194;6.642;2022-07-23T15:40:32;41.30;36.90
28969;DHT22;16076;51.194;6.642;2022-07-23T15:42:58;41.20;37.00
28969;DHT22;16076;51.194;6.642;2022-07-23T15:45:23;41.50;36.40
28969;DHT22;16076;51.194;6.642;2022-07-23T15:47:51;41.80;36.30
28969;DHT22;16076;51.194;6.642;2022-07-23T15:50:17;42.00;35.30
28969;DHT22;16076;51.194;6.642;2022-07-23T15:52:45;42.10;36.60
28969;DHT22;16076;51.194;6.642;2022-07-23T15:55:11;42.40;35.40
28969;DHT22;16076;51.194;6.642;2022-07-23T15:57:39;42.70;35.50
28969;DHT22;16076;51.194;6.642;2022-07-23T16:00:06;42.80;35.30
28969;DHT22;16076;51.194;6.642;2022-07-23T16:02:32;42.80;34.70
28969;DHT22;16076;51.194;6.642;2022-07-23T16:04:58;42.80;34.60
28969;DHT22;16076;51.194;6.642;2022-07-23T16:07:24;42.80;35.00
28969;DHT22;16076;51.194;6.642;2022-07-23T16:09:52;42.70;35.10
28969;DHT22;16076;51.194;6.642;2022-07-23T16:12:18;42.60;35.10
28969;DHT22;16076;51.194;6.642;2022-07-23T16:14:43;42.70;35.80
28969;DHT22;16076;51.194;6.642;2022-07-23T16:17:12;43.10;35.00
28969;DHT22;16076;51.194;6.642;2022-07-23T16:19:38;43.00;35.00
28969;DHT22;16076;51.194;6.642;2022-07-23T16:22:03;42.60;34.60
28969;DHT22;16076;51.194;6.642;2022-07-23T16:24:29;41.90;34.20
28969;DHT22;16076;51.194;6.642;2022-07-23T16:26:55;40.90;35.20
28969;DHT22;16076;51.194;6.642;2022-07-23T16:29:21;40.30;36.60
28969;DHT22;16076;51.194;6.642;2022-07-23T16:31:52;40.10;37.70
28969;DHT22;16076;51.194;6.642;2022-07-23T16:34:22;40.20;37.60
28969;DHT22;16076;51.194;6.642;2022-07-23T16:36:48;40.50;37.10
28969;DHT22;16076;51.194;6.642;2022-07-23T16:39:13;40.50;37.60